Augusta Springs, Virginia
Current Conditions -  °F | °C
As of 7:35 AM on Thursday 23 Oct 2014 (Local Time) from KW13 Reporting Station
Clear Clear  
Wind Chill:   Ceiling: Unl
Heat Index:   Visibility: 10mi
Dew Point:   Wind: 8mph
Humidity: 74%   Direction: 290°WNW
Pressure: 30.01"   Gusts: NA
Location:  38.1°N, 79.32°W
Report Text: KW13 231135Z AUTO 29007KT 260V320 10SM CLR 07/03 A3001 RMK AO1 T00690025
Loading
Personal Weather Stations






























Interactive Weather Map
Tropical Storm Tracking
New forecast layout! Learn more

10-Day Weather Forecast

Advertisements
Track Severe Weather on mobile